createdAt,value
2023-04-22T00:00:35.693Z,11.27
2023-04-22T00:03:03.985Z,10.52
2023-04-22T00:05:31.525Z,10.90
2023-04-22T00:07:58.102Z,10.95
2023-04-22T00:10:24.557Z,11.32
2023-04-22T00:12:54.257Z,11.13
2023-04-22T00:15:25.483Z,11.43
2023-04-22T00:17:52.050Z,11.95
2023-04-22T00:20:21.480Z,11.35
2023-04-22T00:22:48.058Z,11.57
2023-04-22T00:25:14.585Z,12.18
2023-04-22T00:27:41.026Z,11.38
2023-04-22T00:30:10.457Z,12.50
2023-04-22T00:32:37.125Z,11.88
2023-04-22T00:35:04.374Z,12.15
2023-04-22T00:37:30.869Z,11.20
2023-04-22T00:39:58.044Z,11.68
2023-04-22T00:42:25.404Z,12.65
2023-04-22T00:44:56.302Z,11.85
2023-04-22T00:47:26.666Z,12.32
2023-04-22T00:49:54.150Z,11.88
2023-04-22T00:52:20.693Z,12.50
2023-04-22T00:54:48.183Z,12.10
2023-04-22T00:57:14.717Z,12.27
2023-04-22T00:59:42.592Z,11.60
2023-04-22T01:02:09.334Z,11.63
2023-04-22T01:04:39.658Z,11.73
2023-04-22T01:07:06.697Z,11.73
2023-04-22T01:09:33.807Z,12.57
2023-04-22T01:12:01.423Z,12.02
2023-04-22T01:14:30.723Z,11.57
2023-04-22T01:17:01.745Z,12.43
2023-04-22T01:19:29.424Z,12.55
2023-04-22T01:21:59.834Z,12.35
2023-04-22T01:24:26.644Z,12.43
2023-04-22T01:26:53.372Z,12.18
2023-04-22T01:29:20.022Z,12.25
2023-04-22T01:31:50.172Z,11.80
2023-04-22T01:34:16.838Z,11.20
2023-04-22T01:36:44.392Z,11.05
2023-04-22T01:39:10.904Z,11.70
2023-04-22T01:41:37.452Z,10.55
2023-04-22T01:44:04.739Z,9.98
2023-04-22T01:46:33.062Z,9.65
2023-04-22T01:48:59.620Z,9.57
2023-04-22T01:51:26.160Z,9.50
2023-04-22T01:53:52.998Z,10.10
2023-04-22T01:56:19.565Z,10.15
2023-04-22T01:58:45.997Z,10.25
2023-04-22T02:01:13.420Z,10.43
2023-04-22T02:03:39.968Z,10.05
2023-04-22T02:06:06.668Z,9.82
2023-04-22T02:08:33.407Z,10.23
2023-04-22T02:11:00.917Z,10.10
2023-04-22T02:13:40.898Z,10.18
2023-04-22T02:16:08.172Z,10.02
2023-04-22T02:18:35.138Z,10.55
2023-04-22T02:21:01.778Z,10.27
2023-04-22T02:23:28.922Z,10.10
2023-04-22T02:25:56.048Z,9.80
2023-04-22T02:28:22.739Z,9.88
2023-04-22T02:30:49.274Z,9.55
2023-04-22T02:33:15.726Z,10.25
2023-04-22T02:35:42.210Z,10.57
2023-04-22T02:38:10.382Z,11.68
2023-04-22T02:40:36.923Z,12.48
2023-04-22T02:43:04.441Z,12.43
2023-04-22T02:45:31.159Z,11.73
2023-04-22T02:47:57.694Z,11.55
2023-04-22T02:50:24.381Z,12.95
2023-04-22T02:52:51.437Z,13.48
2023-04-22T02:55:18.008Z,14.02
2023-04-22T02:57:44.559Z,13.50
2023-04-22T03:00:11.502Z,13.40
2023-04-22T03:02:38.843Z,14.38
2023-04-22T03:05:06.080Z,15.15
2023-04-22T03:07:32.543Z,14.82
2023-04-22T03:10:00.698Z,13.98
2023-04-22T03:12:27.252Z,15.18
2023-04-22T03:14:53.769Z,14.25
2023-04-22T03:17:20.646Z,15.13
2023-04-22T03:19:47.662Z,14.10
2023-04-22T03:22:14.135Z,14.15
2023-04-22T03:24:40.613Z,13.63
2023-04-22T03:27:07.140Z,14.57
2023-04-22T03:29:34.464Z,13.90
2023-04-22T03:32:03.918Z,13.63
2023-04-22T03:34:30.449Z,13.27
2023-04-22T03:36:56.938Z,14.10
2023-04-22T03:39:23.381Z,14.65
2023-04-22T03:41:49.855Z,13.98
2023-04-22T03:44:16.289Z,14.43
2023-04-22T03:46:42.771Z,15.02
2023-04-22T03:49:09.653Z,13.55
2023-04-22T03:51:36.082Z,14.63
2023-04-22T03:54:02.579Z,13.60
2023-04-22T03:56:29.105Z,13.73
2023-04-22T03:58:55.640Z,14.10
2023-04-22T04:01:23.476Z,14.65
2023-04-22T04:03:50.144Z,14.88
2023-04-22T04:06:16.751Z,13.43
2023-04-22T04:08:43.240Z,14.50
2023-04-22T04:11:11.317Z,13.80
2023-04-22T04:13:37.833Z,14.30
2023-04-22T04:16:04.423Z,13.70
2023-04-22T04:18:30.941Z,13.40
2023-04-22T04:20:57.368Z,12.60
2023-04-22T04:23:23.960Z,12.80
2023-04-22T04:25:50.475Z,13.77
2023-04-22T04:28:17.732Z,12.30
2023-04-22T04:30:44.205Z,11.93
2023-04-22T04:33:12.346Z,11.30
2023-04-22T04:35:39.316Z,12.68
2023-04-22T04:38:08.548Z,12.75
2023-04-22T04:40:35.757Z,12.30
2023-04-22T04:43:04.248Z,12.90
2023-04-22T04:45:31.000Z,12.55
2023-04-22T04:47:58.447Z,12.88
2023-04-22T04:50:28.061Z,12.88
2023-04-22T04:52:54.742Z,11.30
2023-04-22T04:55:21.395Z,12.10
2023-04-22T04:57:47.952Z,11.02
2023-04-22T05:00:14.615Z,10.85
2023-04-22T05:02:41.585Z,11.52
2023-04-22T05:05:08.908Z,12.00
2023-04-22T05:07:35.593Z,11.95
2023-04-22T05:10:03.630Z,11.18
2023-04-22T05:12:30.220Z,11.27
2023-04-22T05:14:56.720Z,11.13
2023-04-22T05:17:23.197Z,10.60
2023-04-22T05:19:49.676Z,12.50
2023-04-22T05:22:17.908Z,11.98
2023-04-22T05:24:44.469Z,12.45
2023-04-22T05:27:11.202Z,11.75
2023-04-22T05:29:38.005Z,12.75
2023-04-22T05:32:05.030Z,13.05
2023-04-22T05:34:31.695Z,12.60
2023-04-22T05:36:58.168Z,11.82
2023-04-22T05:39:24.702Z,13.20
2023-04-22T05:41:53.999Z,11.93
2023-04-22T05:44:20.616Z,11.65
2023-04-22T05:46:47.578Z,12.02
2023-04-22T05:49:14.098Z,12.07
2023-04-22T05:51:40.565Z,11.65
2023-04-22T05:54:07.275Z,11.30
2023-04-22T05:56:33.983Z,11.63
2023-04-22T05:59:00.512Z,10.82
2023-04-22T06:01:26.968Z,11.15
2023-04-22T06:03:53.715Z,9.02
2023-04-22T06:06:20.323Z,9.77
2023-04-22T06:08:46.816Z,9.93
2023-04-22T06:11:13.292Z,9.50
2023-04-22T06:13:39.751Z,9.50
2023-04-22T06:18:38.472Z,9.65
2023-04-22T06:21:08.240Z,9.70
2023-04-22T06:23:34.696Z,8.30
2023-04-22T06:26:01.682Z,8.85
2023-04-22T06:28:28.615Z,8.90
2023-04-22T06:30:58.423Z,10.10
2023-04-22T06:33:24.878Z,8.73
2023-04-22T06:35:51.397Z,9.35
2023-04-22T06:38:17.852Z,8.73
2023-04-22T06:40:44.358Z,9.20
2023-04-22T06:43:10.821Z,10.73
2023-04-22T06:45:37.569Z,10.40
2023-04-22T06:48:04.062Z,8.73
2023-04-22T06:50:30.794Z,9.38
2023-04-22T06:52:57.747Z,8.93
2023-04-22T06:55:24.224Z,10.10
2023-04-22T06:57:51.365Z,10.70
2023-04-22T07:00:18.232Z,9.98
2023-04-22T07:02:44.780Z,10.35
2023-04-22T07:05:11.342Z,10.32
2023-04-22T07:07:37.893Z,9.32
2023-04-22T07:10:05.195Z,9.48
2023-04-22T07:12:31.627Z,10.05
2023-04-22T07:14:58.085Z,10.05
2023-04-22T07:17:24.579Z,9.15
2023-04-22T07:19:51.197Z,9.07
2023-04-22T07:22:17.693Z,9.48
2023-04-22T07:24:44.202Z,9.07
2023-04-22T07:27:10.869Z,9.70
2023-04-22T07:29:37.746Z,9.55
2023-04-22T07:32:04.781Z,10.73
2023-04-22T07:34:31.264Z,11.40
2023-04-22T07:36:57.985Z,11.48
2023-04-22T07:39:24.473Z,10.38
2023-04-22T07:41:51.337Z,11.10
2023-04-22T07:44:21.441Z,10.23
2023-04-22T07:46:48.788Z,10.07
2023-04-22T07:49:16.650Z,10.55
2023-04-22T07:51:46.474Z,9.88
2023-04-22T07:54:15.922Z,9.75
2023-04-22T07:56:42.446Z,10.07
2023-04-22T07:59:08.882Z,10.63
2023-04-22T08:01:35.428Z,10.40
2023-04-22T08:04:02.119Z,10.93
2023-04-22T08:06:28.783Z,10.52
2023-04-22T08:08:55.232Z,10.45
2023-04-22T08:11:21.799Z,9.77
2023-04-22T08:13:48.326Z,9.90
2023-04-22T08:16:14.921Z,8.82
2023-04-22T08:18:41.435Z,8.75
2023-04-22T08:21:07.970Z,8.32
2023-04-22T08:23:34.515Z,7.93
2023-04-22T08:26:01.147Z,7.25
2023-04-22T08:28:27.692Z,7.25
2023-04-22T08:30:54.134Z,6.35
2023-04-22T08:33:20.725Z,6.60
2023-04-22T08:35:48.033Z,6.50
2023-04-22T08:38:14.511Z,5.80
2023-04-22T08:40:42.330Z,5.90
2023-04-22T08:43:09.437Z,5.80
2023-04-22T08:45:39.676Z,5.97
2023-04-22T08:48:09.011Z,6.03
2023-04-22T08:50:39.339Z,5.85
2023-04-22T08:53:06.291Z,5.47
2023-04-22T08:55:34.556Z,5.70
2023-04-22T08:58:01.778Z,5.28
2023-04-22T09:00:28.473Z,4.60
2023-04-22T09:02:56.465Z,5.05
2023-04-22T09:05:26.674Z,4.40
2023-04-22T09:07:55.249Z,4.13
2023-04-22T09:10:21.802Z,4.10
2023-04-22T09:12:48.885Z,4.30
2023-04-22T09:15:15.354Z,3.90
2023-04-22T09:17:43.326Z,3.75
2023-04-22T09:20:10.330Z,3.92
2023-04-22T09:22:49.057Z,4.07
2023-04-22T09:25:20.381Z,3.67
2023-04-22T09:27:53.036Z,3.45
2023-04-22T09:30:24.931Z,3.30
2023-04-22T09:33:00.453Z,3.50
2023-04-22T09:35:28.076Z,2.70
2023-04-22T09:37:55.330Z,2.50
2023-04-22T09:40:21.969Z,2.17
2023-04-22T09:42:53.138Z,2.40
2023-04-22T09:45:34.442Z,1.80
2023-04-22T09:48:19.573Z,2.15
2023-04-22T09:50:51.329Z,2.13
2023-04-22T12:57:43.490Z,6.32
2023-04-22T13:00:14.360Z,3.70
2023-04-22T13:02:45.264Z,2.70
2023-04-22T13:05:12.833Z,3.23
2023-04-22T13:07:41.766Z,2.88
2023-04-22T13:10:14.587Z,2.60
2023-04-22T13:12:42.422Z,2.80
2023-04-22T13:15:10.222Z,3.42
2023-04-22T13:17:37.327Z,2.72
2023-04-22T13:20:09.909Z,2.88
2023-04-22T13:22:36.536Z,2.78
2023-04-22T13:25:03.118Z,2.80
2023-04-22T13:27:29.650Z,2.42
2023-04-22T13:29:56.993Z,2.55
2023-04-22T13:32:23.679Z,2.85
2023-04-22T13:34:50.326Z,3.10
2023-04-22T13:37:19.240Z,2.30
2023-04-22T13:39:46.209Z,2.60
2023-04-22T13:42:13.451Z,2.55
2023-04-22T13:44:39.945Z,2.60
2023-04-22T13:47:06.516Z,2.60
2023-04-22T13:49:33.056Z,2.30
2023-04-22T13:51:59.559Z,2.83
2023-04-22T13:54:27.452Z,2.72
2023-04-22T13:56:54.233Z,3.33
2023-04-22T13:59:20.981Z,2.80
2023-04-22T14:01:47.474Z,2.67
2023-04-22T14:04:14.195Z,2.58
2023-04-22T14:06:40.844Z,2.28
2023-04-22T14:09:07.857Z,2.85
2023-04-22T14:11:34.581Z,2.70
2023-04-22T14:14:01.136Z,2.50
2023-04-22T14:16:27.663Z,2.50
2023-04-22T14:18:55.855Z,2.50
2023-04-22T14:21:22.283Z,2.28
2023-04-22T14:23:49.534Z,2.70
2023-04-22T14:26:16.014Z,2.50
2023-04-22T14:28:42.608Z,2.40
2023-04-22T14:31:09.661Z,2.40
2023-04-22T14:33:36.167Z,2.40
2023-04-22T14:36:02.993Z,3.40
2023-04-22T14:38:29.736Z,7.10
2023-04-22T14:40:56.214Z,2.40
2023-04-22T14:43:22.742Z,2.45
2023-04-22T14:45:49.252Z,2.00
2023-04-22T14:48:16.091Z,2.17
2023-04-22T14:50:43.495Z,2.00
2023-04-22T14:53:10.034Z,3.28
2023-04-22T14:55:36.630Z,7.53
2023-04-22T14:58:06.916Z,2.92
2023-04-22T15:00:33.402Z,2.20
2023-04-22T15:03:00.413Z,2.30
2023-04-22T15:05:27.069Z,2.00
2023-04-22T15:07:53.687Z,2.03
2023-04-22T15:10:20.603Z,1.88
2023-04-22T15:12:47.086Z,2.92
2023-04-22T15:15:15.716Z,1.95
2023-04-22T15:17:43.271Z,2.25
2023-04-22T15:20:10.765Z,2.20
2023-04-22T15:22:40.854Z,2.42
2023-04-22T15:25:09.695Z,2.10
2023-04-22T15:27:37.296Z,2.42
2023-04-22T15:30:05.977Z,3.88
2023-04-22T15:32:32.533Z,1.98
2023-04-22T15:34:59.100Z,2.30
2023-04-22T15:37:28.344Z,2.33
2023-04-22T15:39:54.844Z,1.90
2023-04-22T15:42:21.304Z,2.20
2023-04-22T15:44:47.819Z,2.17
2023-04-22T15:47:15.896Z,1.90
2023-04-22T15:49:42.579Z,2.22
2023-04-22T15:52:09.323Z,1.92
2023-04-22T15:54:35.832Z,2.00
2023-04-22T15:57:02.455Z,1.77
2023-04-22T15:59:28.921Z,1.98
2023-04-22T16:01:55.493Z,2.50
2023-04-22T16:04:22.213Z,1.67
2023-04-22T16:06:50.741Z,2.00
2023-04-22T16:09:17.860Z,1.98
2023-04-22T16:11:44.348Z,1.95
2023-04-22T16:14:11.296Z,2.10
2023-04-22T16:16:39.999Z,1.90
2023-04-22T16:19:07.296Z,3.22
2023-04-22T16:21:36.495Z,7.03
2023-04-22T16:24:03.110Z,2.40
2023-04-22T16:26:29.652Z,2.05
2023-04-22T16:28:56.292Z,11.05
2023-04-22T16:31:25.867Z,2.40
2023-04-22T16:33:52.436Z,2.08
2023-04-22T16:36:18.963Z,2.15
2023-04-22T16:38:45.574Z,2.10
2023-04-22T16:41:15.430Z,2.40
2023-04-22T16:43:43.969Z,2.40
2023-04-22T16:46:10.636Z,2.00
2023-04-22T16:48:37.167Z,2.60
2023-04-22T16:51:04.321Z,4.03
2023-04-22T16:53:31.328Z,2.10
2023-04-22T16:55:57.933Z,6.07
2023-04-22T16:58:24.504Z,2.70
2023-04-22T17:00:51.420Z,2.25
2023-04-22T17:03:18.051Z,2.50
2023-04-22T17:05:44.602Z,2.67
2023-04-22T17:08:11.056Z,2.38
2023-04-22T17:10:41.450Z,2.50
2023-04-22T17:13:07.989Z,3.92
2023-04-22T17:15:34.559Z,2.47
2023-04-22T17:18:02.430Z,2.88
2023-04-22T17:20:28.953Z,2.30
2023-04-22T17:22:55.492Z,2.67
2023-04-22T17:25:24.809Z,2.20
2023-04-22T17:27:51.250Z,3.00
2023-04-22T17:30:17.786Z,2.55
2023-04-22T17:32:44.253Z,2.17
2023-04-22T17:35:10.799Z,2.13
2023-04-22T17:37:37.392Z,2.40
2023-04-22T17:40:04.882Z,2.28
2023-04-22T17:42:44.739Z,2.22
2023-04-22T17:45:12.643Z,2.55
2023-04-22T17:47:39.214Z,3.00
2023-04-22T17:50:06.328Z,3.33
2023-04-22T17:52:32.814Z,2.45
2023-04-22T17:55:00.033Z,2.25
2023-04-22T17:57:28.424Z,2.40
2023-04-22T17:59:54.919Z,2.80
2023-04-22T18:02:22.307Z,2.67
2023-04-22T18:04:48.877Z,2.53
2023-04-22T18:07:15.712Z,2.67
2023-04-22T18:09:42.834Z,2.50
2023-04-22T18:12:10.235Z,2.40
2023-04-22T18:14:36.740Z,2.67
2023-04-22T18:17:03.501Z,2.65
2023-04-22T18:19:30.039Z,2.70
2023-04-22T18:22:00.144Z,2.83
2023-04-22T18:24:27.568Z,2.58
2023-04-22T18:26:54.163Z,2.80
2023-04-22T18:29:20.753Z,3.00
2023-04-22T18:31:47.531Z,3.33
2023-04-22T18:34:15.875Z,3.50
2023-04-22T18:36:42.570Z,2.95
2023-04-22T18:39:09.638Z,2.60
2023-04-22T18:41:38.604Z,2.55
2023-04-22T18:44:05.504Z,2.10
2023-04-22T18:46:32.153Z,2.17
2023-04-22T18:48:58.659Z,2.33
2023-04-22T18:51:25.150Z,2.40
2023-04-22T18:53:52.298Z,2.47
2023-04-22T18:56:18.773Z,2.67
2023-04-22T18:58:45.332Z,2.22
2023-04-22T19:01:12.080Z,2.42
2023-04-22T19:03:39.592Z,2.38
2023-04-22T19:06:06.880Z,2.30
2023-04-22T19:08:33.949Z,2.47
2023-04-22T19:11:01.102Z,2.40
2023-04-22T19:13:30.008Z,2.80
2023-04-22T19:15:57.350Z,2.90
2023-04-22T19:18:24.116Z,2.95
2023-04-22T19:20:50.682Z,2.40
2023-04-22T19:23:20.514Z,2.47
2023-04-22T19:25:46.957Z,2.58
2023-04-22T19:28:13.506Z,2.65
2023-04-22T19:30:43.472Z,2.63
2023-04-22T19:33:13.923Z,2.53
2023-04-22T19:35:40.965Z,2.60
2023-04-22T19:38:07.494Z,2.35
2023-04-22T19:40:34.742Z,2.40
2023-04-22T19:43:03.003Z,2.47
2023-04-22T19:45:32.298Z,2.90
2023-04-22T19:48:02.045Z,2.78
2023-04-22T19:50:28.698Z,2.70
2023-04-22T19:53:04.878Z,2.83
2023-04-22T19:55:33.689Z,2.70
2023-04-22T19:58:00.686Z,3.13
2023-04-22T20:00:27.295Z,2.88
2023-04-22T20:02:54.300Z,2.58
2023-04-22T20:05:22.173Z,2.60
2023-04-22T20:07:49.778Z,2.60
2023-04-22T20:10:16.712Z,2.85
2023-04-22T20:12:44.861Z,2.60
2023-04-22T20:15:11.806Z,2.40
2023-04-22T20:17:39.274Z,2.83
2023-04-22T20:20:08.296Z,2.72
2023-04-22T20:22:35.227Z,2.50
2023-04-22T20:25:04.118Z,2.67
2023-04-22T20:27:31.791Z,2.63
2023-04-22T20:30:00.461Z,2.42
2023-04-22T20:32:28.708Z,2.83
2023-04-22T20:34:56.098Z,2.30
2023-04-22T20:37:31.514Z,2.60
2023-04-22T20:40:04.446Z,2.20
2023-04-22T20:42:32.693Z,2.40
2023-04-22T20:44:59.336Z,2.42
2023-04-22T20:47:25.847Z,2.15
2023-04-22T20:49:52.401Z,2.45
2023-04-22T20:52:19.267Z,2.30
2023-04-22T20:54:46.120Z,2.20
2023-04-22T20:57:13.255Z,2.40
2023-04-22T20:59:39.747Z,2.30
2023-04-22T21:02:07.398Z,2.17
2023-04-22T21:04:34.626Z,2.30
2023-04-22T21:07:05.226Z,2.15
2023-04-22T21:09:35.373Z,2.05
2023-04-22T21:12:05.037Z,2.42
2023-04-22T21:14:31.799Z,2.33
2023-04-22T21:17:03.416Z,2.50
2023-04-22T21:19:34.150Z,2.22
2023-04-22T21:22:05.111Z,2.47
2023-04-22T21:24:32.876Z,2.53
2023-04-22T21:27:08.132Z,2.42
2023-04-22T21:29:38.324Z,2.40
2023-04-22T21:32:09.358Z,2.45
2023-04-22T21:34:40.577Z,2.60
2023-04-22T21:37:11.149Z,2.40
2023-04-22T21:39:39.193Z,2.30
2023-04-22T21:42:08.369Z,2.50
2023-04-22T21:44:36.495Z,2.25
2023-04-22T21:47:03.903Z,2.28
2023-04-22T21:49:30.382Z,2.50
2023-04-22T21:51:57.076Z,2.50
2023-04-22T21:54:23.574Z,2.72
2023-04-22T21:56:50.910Z,2.35
2023-04-22T21:59:19.435Z,2.50
2023-04-22T22:01:48.886Z,2.60
2023-04-22T22:04:16.413Z,2.50
2023-04-22T22:06:44.749Z,2.50
2023-04-22T22:09:12.075Z,2.40
2023-04-22T22:11:38.591Z,2.58
2023-04-22T22:14:08.884Z,2.63
2023-04-22T22:16:35.567Z,2.58
2023-04-22T22:19:05.195Z,2.53
2023-04-22T22:21:32.978Z,2.78
2023-04-22T22:24:03.912Z,2.42
2023-04-22T22:26:36.630Z,2.38
2023-04-22T22:29:03.273Z,2.70
2023-04-22T22:31:29.771Z,2.40
2023-04-22T22:34:02.106Z,2.33
2023-04-22T22:36:31.572Z,3.08
2023-04-22T22:38:58.476Z,2.70
2023-04-22T22:41:24.918Z,2.60
2023-04-22T22:43:51.714Z,2.70
2023-04-22T22:46:24.812Z,2.80
2023-04-22T22:48:53.645Z,2.75
2023-04-22T22:51:23.592Z,3.08
2023-04-22T22:53:50.168Z,2.80
2023-04-22T22:56:18.062Z,3.10
2023-04-22T22:58:46.077Z,2.50
2023-04-22T23:01:12.621Z,3.10
2023-04-22T23:03:39.561Z,2.97
2023-04-22T23:06:12.288Z,2.70
2023-04-22T23:08:41.699Z,2.60
2023-04-22T23:11:08.165Z,2.50
2023-04-22T23:13:34.660Z,2.70
2023-04-22T23:16:01.360Z,2.60
2023-04-22T23:18:28.053Z,3.10
2023-04-22T23:20:54.717Z,2.80
2023-04-22T23:23:22.731Z,2.80
2023-04-22T23:25:49.481Z,2.38
2023-04-22T23:28:16.398Z,2.50
2023-04-22T23:30:49.235Z,2.50
2023-04-22T23:33:26.639Z,2.80
2023-04-22T23:35:53.826Z,2.75
2023-04-22T23:38:20.521Z,2.75
2023-04-22T23:40:47.026Z,2.90
2023-04-22T23:43:13.585Z,2.70
2023-04-22T23:45:40.259Z,2.63
2023-04-22T23:48:09.805Z,2.88
2023-04-22T23:50:36.357Z,2.88
2023-04-22T23:53:33.772Z,2.92
2023-04-22T23:56:00.862Z,2.95
2023-04-22T23:58:27.526Z,2.95
